createdAt,value
2019-01-02T00:02:38.747Z,23.40
2019-01-02T00:05:19.780Z,23.90
2019-01-02T00:08:01.014Z,24.60
2019-01-02T00:14:14.623Z,22.20
2019-01-02T00:17:07.872Z,21.30
2019-01-02T00:19:49.656Z,22.70
2019-01-02T00:22:30.919Z,22.40
2019-01-02T00:25:12.737Z,21.60
2019-01-02T00:27:43.547Z,20.40
2019-01-02T00:30:32.721Z,21.00
2019-01-02T00:33:38.292Z,20.50
2019-01-02T00:36:19.007Z,20.00
2019-01-02T00:39:00.141Z,19.90
2019-01-02T00:41:40.950Z,20.40
2019-01-02T00:44:22.336Z,19.70
2019-01-02T00:47:03.771Z,19.50
2019-01-02T00:49:45.616Z,19.40
2019-01-02T00:52:31.262Z,19.00
2019-01-02T00:55:12.727Z,18.80
2019-01-02T00:57:52.388Z,18.80
2019-01-02T01:00:32.398Z,19.00
2019-01-02T01:03:12.664Z,18.60
2019-01-02T01:05:40.648Z,20.00
2019-01-02T01:08:47.171Z,19.00
2019-01-02T01:11:27.640Z,18.20
2019-01-02T01:14:09.343Z,18.40
2019-01-02T01:16:50.856Z,18.70
2019-01-02T01:19:31.635Z,18.50
2019-01-02T01:22:12.988Z,18.50
2019-01-02T01:24:54.203Z,18.70
2019-01-02T01:27:24.190Z,17.90
2019-01-02T01:30:13.335Z,18.00
2019-01-02T01:32:44.190Z,18.50
2019-01-02T01:35:40.523Z,18.50
2019-01-02T01:38:20.682Z,18.40
2019-01-02T01:41:00.791Z,18.50
2019-01-02T01:43:40.903Z,18.50
2019-01-02T01:46:21.713Z,18.30
2019-01-02T01:49:03.656Z,18.40
2019-01-02T01:51:44.702Z,18.40
2019-01-02T01:54:25.675Z,18.00
2019-01-02T01:57:17.124Z,18.30
2019-01-02T02:00:07.851Z,18.00
2019-01-02T02:03:10.306Z,19.10
2019-01-02T02:05:51.119Z,17.40
2019-01-02T02:08:32.427Z,17.40
2019-01-02T02:11:14.007Z,17.90
2019-01-02T02:13:54.739Z,17.30
2019-01-02T02:16:36.651Z,18.00
2019-01-02T02:19:04.614Z,18.10
2019-01-02T02:21:46.443Z,18.50
2019-01-02T02:24:15.555Z,19.90
2019-01-02T02:27:04.120Z,20.70
2019-01-02T02:29:45.153Z,23.30
2019-01-02T02:32:32.251Z,24.50
2019-01-02T02:35:27.938Z,23.20
2019-01-02T02:38:08.039Z,24.10
2019-01-02T02:40:50.742Z,23.90
2019-01-02T02:43:32.172Z,23.40
2019-01-02T02:46:13.342Z,23.30
2019-01-02T02:48:54.423Z,23.20
2019-01-02T02:51:35.241Z,22.70
2019-01-02T02:54:03.690Z,22.80
2019-01-02T02:57:02.840Z,24.50
2019-01-02T02:59:45.178Z,23.00
2019-01-02T03:02:25.339Z,23.60
2019-01-02T03:04:52.512Z,23.20
2019-01-02T03:07:39.871Z,22.50
2019-01-02T03:10:15.375Z,22.90
2019-01-02T03:13:02.730Z,22.80
2019-01-02T03:16:04.027Z,22.90
2019-01-02T03:18:45.399Z,23.00
2019-01-02T03:21:26.353Z,23.60
2019-01-02T03:24:07.443Z,23.70
2019-01-02T03:30:10.935Z,23.90
2019-01-02T03:32:53.967Z,24.90
2019-01-02T03:35:35.067Z,26.00
2019-01-02T03:38:16.058Z,28.00
2019-01-02T03:40:57.219Z,29.20
2019-01-02T03:43:38.385Z,31.60
2019-01-02T03:46:19.487Z,33.30
2019-01-02T03:49:08.551Z,33.50
2019-01-02T03:51:55.231Z,33.10
2019-01-02T03:54:34.655Z,33.90
2019-01-02T03:57:09.754Z,34.50
2019-01-02T04:00:10.768Z,33.60
2019-01-02T04:02:44.639Z,33.80
2019-01-02T04:05:25.753Z,33.10
2019-01-02T04:08:06.899Z,33.50
2019-01-02T04:10:47.918Z,33.40
2019-01-02T04:13:28.860Z,33.00
2019-01-02T04:16:08.750Z,32.30
2019-01-02T04:18:49.028Z,32.30
2019-01-02T04:21:28.736Z,31.90
2019-01-02T04:23:55.671Z,31.20
2019-01-02T04:26:42.359Z,32.10
2019-01-02T04:29:22.691Z,33.50
2019-01-02T04:35:36.524Z,32.10
2019-01-02T04:38:33.682Z,32.60
2019-01-02T04:44:09.956Z,33.80
2019-01-02T04:46:49.976Z,33.30
2019-01-02T04:49:31.052Z,31.80
2019-01-02T04:52:12.131Z,31.10
2019-01-02T04:54:53.614Z,31.70
2019-01-02T04:57:34.372Z,31.80
2019-01-02T05:00:15.109Z,33.60
2019-01-02T05:02:45.711Z,36.00
2019-01-02T05:05:34.317Z,41.00
2019-01-02T05:08:04.179Z,44.80
2019-01-02T05:10:50.855Z,45.30
2019-01-02T05:13:31.047Z,49.50
2019-01-02T05:15:58.311Z,57.30
2019-01-02T05:18:45.047Z,56.60
2019-01-02T05:21:25.124Z,62.90
2019-01-02T05:24:06.236Z,65.90
2019-01-02T05:26:47.510Z,71.50
2019-01-02T05:29:28.563Z,72.30
2019-01-02T05:32:09.383Z,71.60
2019-01-02T05:35:19.606Z,71.50
2019-01-02T05:38:06.490Z,70.50
2019-01-02T05:40:39.945Z,66.80
2019-01-02T05:43:26.621Z,65.30
2019-01-02T05:45:57.287Z,62.50
2019-01-02T05:48:24.351Z,61.90
2019-01-02T05:51:04.453Z,61.80
2019-01-02T05:53:44.644Z,62.50
2019-01-02T05:56:24.622Z,61.30
2019-01-02T05:59:05.960Z,59.90
2019-01-02T06:01:47.023Z,60.60
2019-01-02T06:04:27.864Z,61.80
2019-01-02T06:09:52.131Z,65.30
2019-01-02T06:12:20.130Z,66.90
2019-01-02T06:15:09.846Z,66.70
2019-01-02T06:17:52.378Z,66.10
2019-01-02T06:20:32.902Z,64.80
2019-01-02T06:23:13.021Z,65.00
2019-01-02T06:25:53.531Z,64.00
2019-01-02T06:28:35.102Z,63.60
2019-01-02T06:31:16.642Z,62.90
2019-01-02T06:33:57.387Z,62.20
2019-01-02T06:36:38.753Z,61.50
2019-01-02T06:39:19.745Z,60.50
2019-01-02T06:42:00.232Z,59.60
2019-01-02T06:44:30.537Z,58.40
2019-01-02T06:46:59.387Z,58.00
2019-01-02T06:49:40.927Z,56.40
2019-01-02T06:52:27.656Z,54.70
2019-01-02T06:55:14.231Z,55.00
2019-01-02T06:57:53.877Z,55.80
2019-01-02T07:03:10.675Z,54.40
2019-01-02T07:05:58.360Z,54.90
2019-01-02T07:08:40.373Z,53.30
2019-01-02T07:11:11.927Z,53.80
2019-01-02T07:14:00.503Z,52.70
2019-01-02T07:16:30.813Z,52.80
2019-01-02T07:19:12.507Z,56.30
2019-01-02T07:24:41.663Z,56.30
2019-01-02T07:27:28.559Z,55.70
2019-01-02T07:30:16.566Z,56.40
2019-01-02T07:32:57.798Z,58.10
2019-01-02T07:35:50.428Z,59.90
2019-01-02T07:39:00.298Z,61.10
2019-01-02T07:41:42.381Z,61.70
2019-01-02T07:44:22.734Z,61.80
2019-01-02T07:47:03.482Z,61.70
2019-01-02T07:52:37.686Z,61.30
2019-01-02T07:55:18.766Z,61.70
2019-01-02T07:58:01.976Z,61.90
2019-01-02T08:00:42.843Z,62.00
2019-01-02T08:03:22.960Z,62.20
2019-01-02T08:06:03.026Z,62.40
2019-01-02T08:08:44.278Z,61.70
2019-01-02T08:11:47.076Z,61.80
2019-01-02T08:14:54.283Z,63.80
2019-01-02T08:17:35.079Z,62.10
2019-01-02T08:20:16.019Z,61.70
2019-01-02T08:22:56.026Z,62.10
2019-01-02T08:25:36.330Z,61.90
2019-01-02T08:28:43.163Z,61.40
2019-01-02T08:31:49.350Z,62.00
2019-01-02T08:34:29.474Z,65.80
2019-01-02T08:37:19.696Z,66.80
2019-01-02T08:40:27.815Z,67.00
2019-01-02T08:43:34.479Z,67.00
2019-01-02T08:46:42.590Z,68.20
2019-01-02T08:49:24.944Z,68.00
2019-01-02T08:52:05.947Z,67.20
2019-01-02T08:54:47.691Z,66.60
2019-01-02T08:57:28.844Z,66.10
2019-01-02T09:00:09.888Z,64.50
2019-01-02T09:02:50.986Z,63.70
2019-01-02T09:05:31.926Z,63.50
2019-01-02T09:08:11.991Z,62.50
2019-01-02T09:11:02.640Z,61.90
2019-01-02T09:13:47.223Z,62.80
2019-01-02T09:16:27.538Z,61.90
2019-01-02T09:19:11.966Z,61.90
2019-01-02T09:21:52.980Z,61.00
2019-01-02T09:24:33.674Z,58.50
2019-01-02T09:27:14.573Z,57.90
2019-01-02T09:29:55.989Z,56.60
2019-01-02T09:32:35.697Z,54.80
2019-01-02T09:35:15.691Z,53.10
2019-01-02T09:37:56.651Z,53.10
2019-01-02T09:40:33.578Z,52.00
2019-01-02T09:43:42.263Z,51.30
2019-01-02T09:46:22.964Z,51.20
2019-01-02T09:49:02.595Z,49.60
2019-01-02T09:51:42.888Z,51.10
2019-01-02T09:54:23.457Z,51.20
2019-01-02T09:57:04.485Z,51.20
2019-01-02T09:59:46.211Z,51.20
2019-01-02T10:02:54.235Z,50.10
2019-01-02T10:06:01.440Z,47.50
2019-01-02T10:08:45.995Z,43.00
2019-01-02T10:11:25.953Z,44.70
2019-01-02T10:14:05.567Z,45.70
2019-01-02T10:16:45.713Z,43.90
2019-01-02T10:19:53.878Z,44.30
2019-01-02T10:22:36.394Z,43.70
2019-01-02T10:25:18.452Z,44.20
2019-01-02T10:27:59.903Z,41.60
2019-01-02T10:30:40.721Z,42.10
2019-01-02T10:33:21.426Z,42.10
2019-01-02T10:36:00.964Z,41.60
2019-01-02T10:38:41.027Z,38.40
2019-01-02T10:41:22.191Z,39.50
2019-01-02T10:44:03.327Z,38.60
2019-01-02T10:46:55.996Z,38.40
2019-01-02T10:50:07.026Z,38.60
2019-01-02T10:52:49.226Z,38.40
2019-01-02T10:55:30.178Z,34.20
2019-01-02T10:58:11.220Z,36.60
2019-01-02T11:00:51.721Z,37.10
2019-01-02T11:03:31.291Z,35.10
2019-01-02T11:06:11.828Z,33.30
2019-01-02T11:08:52.992Z,32.10
2019-01-02T11:11:34.823Z,32.50
2019-01-02T11:14:16.444Z,31.20
2019-01-02T11:17:22.935Z,31.50
2019-01-02T11:23:14.099Z,28.60
2019-01-02T11:25:54.316Z,27.90
2019-01-02T11:28:34.630Z,27.10
2019-01-02T11:33:56.067Z,26.30
2019-01-02T11:36:36.536Z,26.80
2019-01-02T11:39:17.853Z,26.70
2019-01-02T11:41:58.536Z,26.60
2019-01-02T11:45:03.551Z,25.80
2019-01-02T11:47:50.747Z,24.60
2019-01-02T11:50:43.096Z,24.90
2019-01-02T11:53:32.167Z,24.10
2019-01-02T11:56:15.681Z,22.10
2019-01-02T11:58:56.270Z,22.00
2019-01-02T12:01:37.360Z,22.30
2019-01-02T12:04:17.687Z,20.80
2019-01-02T12:06:57.628Z,21.40
2019-01-02T12:09:37.855Z,18.30
2019-01-02T12:12:17.973Z,17.80
2019-01-02T12:14:58.093Z,17.60
2019-01-02T12:17:38.083Z,14.20
2019-01-02T12:20:19.048Z,12.90
2019-01-02T12:22:52.135Z,14.40
2019-01-02T12:25:40.959Z,13.60
2019-01-02T12:28:10.486Z,11.00
2019-01-02T12:30:59.754Z,9.70
2019-01-02T12:33:41.758Z,9.20
2019-01-02T12:36:26.419Z,8.50
2019-01-02T12:39:06.780Z,9.20
2019-01-02T12:41:50.011Z,8.10
2019-01-02T12:44:29.717Z,8.40
2019-01-02T12:47:10.448Z,9.00
2019-01-02T12:49:51.843Z,8.50
2019-01-02T12:52:32.879Z,8.20
2019-01-02T12:55:13.727Z,7.90
2019-01-02T12:57:55.058Z,7.30
2019-01-02T13:00:35.715Z,8.10
2019-01-02T13:03:16.898Z,7.50
2019-01-02T13:05:58.144Z,7.40
2019-01-02T13:08:39.076Z,5.50
2019-01-02T13:11:19.614Z,4.70
2019-01-02T13:14:27.359Z,5.10
2019-01-02T13:17:35.084Z,6.60
2019-01-02T13:20:21.927Z,5.00
2019-01-02T13:23:04.271Z,3.80
2019-01-02T13:25:45.162Z,2.50
2019-01-02T13:28:26.525Z,2.50
2019-01-02T13:31:07.216Z,1.90
2019-01-02T13:33:48.471Z,1.30
2019-01-02T13:36:45.688Z,1.60
2019-01-02T13:39:57.931Z,1.00
2019-01-02T13:42:37.939Z,1.30
2019-01-02T13:45:47.054Z,1.10
2019-01-02T13:48:53.281Z,1.00
2019-01-02T13:51:34.535Z,1.00
2019-01-02T13:54:04.874Z,1.00
2019-01-02T13:56:51.903Z,1.00
2019-01-02T13:59:33.662Z,1.00
2019-01-02T14:02:14.885Z,1.00
2019-01-02T14:04:55.757Z,1.00
2019-01-02T14:07:39.875Z,1.00
2019-01-02T14:10:28.968Z,1.00
2019-01-02T14:13:18.135Z,1.00
2019-01-02T14:16:02.059Z,1.00
2019-01-02T14:18:41.849Z,1.00
2019-01-02T14:21:24.059Z,1.00
2019-01-02T14:24:04.182Z,1.00
2019-01-02T14:26:45.389Z,1.00
2019-01-02T14:29:26.511Z,1.00
2019-01-02T14:32:08.716Z,1.00
2019-01-02T14:34:49.944Z,1.00
2019-01-02T14:37:30.811Z,1.00
2019-01-02T14:40:12.150Z,1.00
2019-01-02T14:42:53.492Z,1.00
2019-01-02T14:45:33.979Z,1.00
2019-01-02T14:48:04.471Z,1.00
2019-01-02T14:50:51.431Z,1.00
2019-01-02T14:53:18.673Z,1.00
2019-01-02T14:55:48.959Z,1.00
2019-01-02T14:58:29.762Z,1.00
2019-01-02T15:00:57.710Z,1.00
2019-01-02T15:03:44.659Z,1.00
2019-01-02T15:06:26.632Z,1.00
2019-01-02T15:09:07.758Z,1.00
2019-01-02T15:11:48.683Z,1.00
2019-01-02T15:14:29.802Z,1.00
2019-01-02T15:17:11.235Z,1.00
2019-01-02T15:19:52.252Z,1.00
2019-01-02T15:22:32.946Z,1.00
2019-01-02T15:25:12.663Z,1.00
2019-01-02T15:27:56.400Z,1.00
2019-01-02T15:30:36.152Z,1.00
2019-01-02T15:33:16.281Z,1.00
2019-01-02T15:35:56.212Z,1.00
2019-01-02T15:38:27.790Z,1.00
2019-01-02T15:40:57.143Z,1.00
2019-01-02T15:43:38.418Z,1.00
2019-01-02T15:46:26.307Z,1.00
2019-01-02T15:49:15.060Z,1.00
2019-01-02T15:51:57.015Z,1.00
2019-01-02T15:54:38.315Z,1.00
2019-01-02T15:57:22.442Z,1.00
2019-01-02T16:00:01.922Z,1.00
2019-01-02T16:05:28.226Z,1.00
2019-01-02T16:08:09.179Z,1.00
2019-01-02T16:10:50.589Z,1.00
2019-01-02T16:13:31.519Z,1.00
2019-01-02T16:16:12.402Z,1.00
2019-01-02T16:18:44.867Z,1.00
2019-01-02T16:21:27.422Z,1.00
2019-01-02T16:24:08.498Z,1.00
2019-01-02T16:26:49.509Z,1.00
2019-01-02T16:29:30.038Z,1.00
2019-01-02T16:31:57.338Z,1.00
2019-01-02T16:34:44.458Z,1.00
2019-01-02T16:37:24.055Z,1.00
2019-01-02T16:40:04.550Z,1.00
2019-01-02T16:42:45.255Z,1.00
2019-01-02T16:45:26.958Z,1.00
2019-01-02T16:48:07.506Z,1.80
2019-01-02T16:50:48.263Z,2.10
2019-01-02T16:53:29.316Z,3.00
2019-01-02T16:56:10.388Z,3.90
2019-01-02T16:58:51.473Z,3.90
2019-01-02T17:01:33.239Z,4.70
2019-01-02T17:04:13.316Z,5.80
2019-01-02T17:06:44.964Z,6.50
2019-01-02T17:09:31.538Z,7.00
2019-01-02T17:12:11.091Z,6.90
2019-01-02T17:14:51.343Z,6.70
2019-01-02T17:17:32.216Z,6.70
2019-01-02T17:20:13.262Z,7.50
2019-01-02T17:23:02.447Z,8.90
2019-01-02T17:25:50.138Z,9.00
2019-01-02T17:28:32.467Z,8.20
2019-01-02T17:31:13.707Z,9.90
2019-01-02T17:33:56.872Z,9.10
2019-01-02T17:36:36.820Z,9.10
2019-01-02T17:39:16.691Z,9.20
2019-01-02T17:41:56.835Z,8.40
2019-01-02T17:44:38.436Z,8.90
2019-01-02T17:47:19.104Z,8.90
2019-01-02T17:50:00.299Z,8.90
2019-01-02T17:52:41.486Z,8.90
2019-01-02T17:55:11.713Z,9.40
2019-01-02T17:58:00.294Z,10.00
2019-01-02T18:00:42.489Z,11.00
2019-01-02T18:03:26.050Z,10.60
2019-01-02T18:06:10.897Z,10.50
2019-01-02T18:08:47.904Z,11.00
2019-01-02T18:11:28.039Z,11.60
2019-01-02T18:14:09.167Z,11.60
2019-01-02T18:16:50.184Z,11.60
2019-01-02T18:19:23.263Z,12.60
2019-01-02T18:22:04.064Z,13.00
2019-01-02T18:24:45.265Z,12.00
2019-01-02T18:27:26.442Z,13.30
2019-01-02T18:30:07.594Z,14.10
2019-01-02T18:32:48.601Z,15.40
2019-01-02T18:35:28.951Z,14.40
2019-01-02T18:38:09.405Z,14.70
2019-01-02T18:40:39.830Z,18.20
2019-01-02T18:43:26.844Z,16.50
2019-01-02T18:46:06.919Z,16.40
2019-01-02T18:48:48.192Z,16.30
2019-01-02T18:51:29.203Z,17.60
2019-01-02T18:54:10.478Z,16.50
2019-01-02T18:56:41.077Z,15.80
2019-01-02T18:59:30.180Z,15.30
2019-01-02T19:01:59.380Z,16.40
2019-01-02T19:04:48.601Z,15.80
2019-01-02T19:07:28.514Z,16.10
2019-01-02T19:10:09.059Z,16.80
2019-01-02T19:12:40.326Z,16.70
2019-01-02T19:15:27.691Z,16.60
2019-01-02T19:18:07.802Z,17.00
2019-01-02T19:20:49.038Z,16.30
2019-01-02T19:23:37.418Z,16.30
2019-01-02T19:26:26.450Z,16.70
2019-01-02T19:29:13.652Z,17.30
2019-01-02T19:31:54.656Z,16.30
2019-01-02T19:34:35.493Z,16.20
2019-01-02T19:37:14.886Z,18.30
2019-01-02T19:39:54.847Z,16.70
2019-01-02T19:42:35.048Z,18.00
2019-01-02T19:45:14.716Z,16.70
2019-01-02T19:47:55.810Z,16.20
2019-01-02T19:50:37.079Z,17.10
2019-01-02T19:53:18.400Z,16.10
2019-01-02T19:55:59.331Z,17.20
2019-01-02T19:58:40.201Z,16.10
2019-01-02T20:01:21.306Z,16.30
2019-01-02T20:04:01.762Z,18.30
2019-01-02T20:06:28.814Z,17.00
2019-01-02T20:09:00.148Z,18.30
2019-01-02T20:11:42.209Z,18.40
2019-01-02T20:14:21.747Z,18.40
2019-01-02T20:17:01.518Z,18.30
2019-01-02T20:19:28.722Z,18.30
2019-01-02T20:22:19.523Z,19.10
2019-01-02T20:25:01.730Z,21.10
2019-01-02T20:27:42.630Z,20.50
2019-01-02T20:30:23.762Z,19.50
2019-01-02T20:33:04.923Z,19.90
2019-01-02T20:35:45.930Z,20.10
2019-01-02T20:38:27.111Z,20.40
2019-01-02T20:41:07.238Z,22.00
2019-01-02T20:43:47.151Z,21.20
2019-01-02T20:46:17.963Z,21.10
2019-01-02T20:48:45.043Z,22.80
2019-01-02T20:51:24.884Z,22.20
2019-01-02T20:54:04.974Z,22.00
2019-01-02T20:56:45.358Z,21.20
2019-01-02T20:59:25.043Z,21.80
2019-01-02T21:02:06.057Z,21.60
2019-01-02T21:04:46.887Z,20.70
2019-01-02T21:07:27.916Z,22.00
2019-01-02T21:10:09.186Z,21.70
2019-01-02T21:12:49.716Z,21.70
2019-01-02T21:15:18.632Z,23.40
2019-01-02T21:18:07.353Z,22.00
2019-01-02T21:20:46.908Z,21.60
2019-01-02T21:23:27.190Z,22.00
2019-01-02T21:26:07.373Z,22.80
2019-01-02T21:28:47.525Z,22.70
2019-01-02T21:31:27.520Z,24.10
2019-01-02T21:34:08.991Z,23.00
2019-01-02T21:36:49.928Z,22.60
2019-01-02T21:39:30.961Z,22.50
2019-01-02T21:42:11.962Z,21.60
2019-01-02T21:44:57.118Z,21.90
2019-01-02T21:47:38.248Z,22.40
2019-01-02T21:50:19.263Z,21.70
2019-01-02T21:52:59.524Z,21.40
2019-01-02T21:55:39.495Z,21.50
2019-01-02T21:58:19.432Z,21.60
2019-01-02T22:00:59.453Z,21.70
2019-01-02T22:03:39.438Z,21.80
2019-01-02T22:06:19.311Z,23.40
2019-01-02T22:09:00.334Z,23.70
2019-01-02T22:11:41.532Z,22.50
2019-01-02T22:14:22.628Z,23.70
2019-01-02T22:16:53.997Z,22.70
2019-01-02T22:19:42.595Z,22.10
2019-01-02T22:22:24.763Z,22.40
2019-01-02T22:25:09.523Z,23.30
2019-01-02T22:27:49.084Z,22.60
2019-01-02T22:30:29.802Z,22.90
2019-01-02T22:33:09.407Z,23.80
2019-01-02T22:35:49.398Z,23.30
2019-01-02T22:38:29.547Z,22.70
2019-01-02T22:41:10.632Z,23.20
2019-01-02T22:43:51.582Z,22.80
2019-01-02T22:46:32.330Z,22.80
2019-01-02T22:49:13.606Z,23.10
2019-01-02T22:51:44.458Z,23.60
2019-01-02T22:54:33.200Z,24.20
2019-01-02T22:57:03.455Z,24.50
2019-01-02T22:59:52.229Z,25.70
2019-01-02T23:02:45.289Z,27.20
2019-01-02T23:05:53.464Z,26.70
2019-01-02T23:08:53.362Z,26.70
2019-01-02T23:11:48.857Z,27.40
2019-01-02T23:14:48.641Z,27.30
2019-01-02T23:17:46.519Z,27.30
2019-01-02T23:20:34.999Z,28.60
2019-01-02T23:26:49.405Z,29.10
2019-01-02T23:29:37.822Z,28.90
2019-01-02T23:32:43.896Z,29.10
2019-01-02T23:35:42.884Z,29.20
2019-01-02T23:38:48.599Z,29.30
2019-01-02T23:42:00.506Z,29.00
2019-01-02T23:45:07.847Z,28.90
2019-01-02T23:48:07.206Z,29.00
2019-01-02T23:50:48.490Z,28.70
2019-01-02T23:53:48.624Z,29.00
2019-01-02T23:56:50.170Z,30.90
2019-01-02T23:59:52.303Z,30.80
